createdAt,value
2023-05-10T00:00:46.324Z,100530.44
2023-05-10T00:03:12.885Z,100524.13
2023-05-10T00:05:39.493Z,100542.50
2023-05-10T00:08:06.147Z,100533.34
2023-05-10T00:10:32.587Z,100510.66
2023-05-10T00:12:59.212Z,100491.28
2023-05-10T00:15:25.791Z,100548.47
2023-05-10T00:17:52.281Z,100534.34
2023-05-10T00:20:19.171Z,100547.53
2023-05-10T00:22:45.913Z,100544.38
2023-05-10T00:25:12.706Z,100535.38
2023-05-10T00:27:41.661Z,100548.66
2023-05-10T00:30:10.708Z,100543.94
2023-05-10T00:32:37.358Z,100545.50
2023-05-10T00:35:03.956Z,100552.09
2023-05-10T00:37:30.838Z,100534.38
2023-05-10T00:39:57.227Z,100546.44
2023-05-10T00:42:23.750Z,100535.94
2023-05-10T00:44:50.142Z,100535.47
2023-05-10T00:47:17.673Z,100535.22
2023-05-10T00:49:44.701Z,100503.56
2023-05-10T00:52:11.204Z,100520.25
2023-05-10T00:54:37.956Z,100530.91
2023-05-10T00:57:04.732Z,100526.97
2023-05-10T00:59:31.637Z,100531.88
2023-05-10T01:01:58.889Z,100446.75
2023-05-10T01:04:26.539Z,100521.56
2023-05-10T01:06:54.492Z,100513.03
2023-05-10T01:09:22.602Z,100514.41
2023-05-10T01:11:49.835Z,100526.34
2023-05-10T01:14:19.719Z,100506.97
2023-05-10T01:16:47.919Z,100503.25
2023-05-10T01:19:23.935Z,100514.50
2023-05-10T01:22:19.487Z,100514.50
2023-05-10T01:25:08.942Z,100510.19
2023-05-10T01:27:35.351Z,100507.03
2023-05-10T01:30:32.312Z,100504.56
2023-05-10T01:33:02.615Z,100524.28
2023-05-10T01:35:40.931Z,100507.66
2023-05-10T01:38:26.195Z,100521.84
2023-05-10T01:41:01.874Z,100514.28
2023-05-10T01:43:32.763Z,100519.38
2023-05-10T01:46:11.325Z,100512.03
2023-05-10T01:48:48.080Z,100504.81
2023-05-10T01:51:20.621Z,100509.72
2023-05-10T01:53:49.656Z,100509.03
2023-05-10T01:56:17.023Z,100500.50
2023-05-10T01:58:48.250Z,100489.53
2023-05-10T02:01:15.858Z,100500.03
2023-05-10T02:03:44.706Z,100499.38
2023-05-10T02:06:13.784Z,100462.94
2023-05-10T02:08:42.095Z,100493.66
2023-05-10T02:11:12.164Z,100450.28
2023-05-10T02:13:40.348Z,100488.63
2023-05-10T02:16:08.260Z,100492.69
2023-05-10T02:18:36.910Z,100503.91
2023-05-10T02:21:04.255Z,100500.75
2023-05-10T02:23:32.153Z,100482.88
2023-05-10T02:25:59.909Z,100450.28
2023-05-10T02:28:27.484Z,100499.13
2023-05-10T02:30:55.355Z,100494.00
2023-05-10T02:33:23.397Z,100496.13
2023-05-10T02:35:51.860Z,100498.16
2023-05-10T02:38:21.147Z,100498.16
2023-05-10T02:40:48.574Z,100503.72
2023-05-10T02:43:18.020Z,100501.06
2023-05-10T02:45:47.891Z,100492.31
2023-05-10T02:48:14.570Z,100488.13
2023-05-10T02:50:45.440Z,100487.47
2023-05-10T02:53:16.028Z,100483.28
2023-05-10T02:55:46.001Z,100485.31
2023-05-10T02:58:12.500Z,100465.06
2023-05-10T03:00:38.928Z,100485.31
2023-05-10T03:03:05.419Z,100487.16
2023-05-10T03:05:32.169Z,100482.81
2023-05-10T03:07:58.690Z,100481.34
2023-05-10T03:10:30.364Z,100487.16
2023-05-10T03:13:08.673Z,100484.66
2023-05-10T03:15:59.132Z,100484.31
2023-05-10T03:18:40.754Z,100486.16
2023-05-10T03:21:09.940Z,100487.00
2023-05-10T03:23:48.785Z,100419.56
2023-05-10T03:26:21.467Z,100485.81
2023-05-10T03:28:49.309Z,100470.53
2023-05-10T03:31:16.413Z,100471.22
2023-05-10T03:33:50.476Z,100476.56
2023-05-10T03:36:17.157Z,100476.38
2023-05-10T03:38:43.655Z,100479.78
2023-05-10T03:41:10.468Z,100408.97
2023-05-10T03:43:37.543Z,100469.50
2023-05-10T03:46:04.599Z,100439.59
2023-05-10T03:48:31.664Z,100471.00
2023-05-10T03:50:58.160Z,100473.53
2023-05-10T03:53:25.105Z,100474.88
2023-05-10T03:55:51.676Z,100446.28
2023-05-10T03:58:18.107Z,100484.28
2023-05-10T04:00:46.155Z,100476.22
2023-05-10T04:03:13.877Z,100465.81
2023-05-10T04:05:40.952Z,100472.03
2023-05-10T04:08:07.493Z,100476.22
2023-05-10T04:10:33.932Z,100477.06
2023-05-10T04:13:00.766Z,100471.50
2023-05-10T04:15:27.259Z,100470.09
2023-05-10T04:17:54.597Z,100444.09
2023-05-10T04:20:21.366Z,100484.03
2023-05-10T04:22:47.855Z,100464.28
2023-05-10T04:25:14.618Z,100474.59
2023-05-10T04:27:41.069Z,100456.22
2023-05-10T04:30:08.334Z,100482.09
2023-05-10T04:32:34.813Z,100485.63
2023-05-10T04:35:03.878Z,100482.78
2023-05-10T04:37:30.389Z,100479.72
2023-05-10T04:39:56.794Z,100475.38
2023-05-10T04:42:23.225Z,100478.53
2023-05-10T04:44:49.590Z,100472.16
2023-05-10T04:47:17.194Z,100476.53
2023-05-10T04:49:43.621Z,100464.44
2023-05-10T04:52:10.019Z,100474.31
2023-05-10T04:54:36.596Z,100482.81
2023-05-10T04:57:03.143Z,100436.69
2023-05-10T04:59:29.764Z,100480.97
2023-05-10T05:01:56.176Z,100477.75
2023-05-10T05:04:24.401Z,100480.94
2023-05-10T05:06:53.671Z,100474.53
2023-05-10T05:09:20.799Z,100484.00
2023-05-10T05:11:47.252Z,100466.00
2023-05-10T05:14:13.745Z,100482.66
2023-05-10T05:16:40.445Z,100490.97
2023-05-10T05:19:07.613Z,100483.41
2023-05-10T05:21:34.258Z,100493.44
2023-05-10T05:24:00.948Z,100495.63
2023-05-10T05:26:27.628Z,100491.69
2023-05-10T05:28:55.472Z,100487.28
2023-05-10T05:31:22.211Z,100489.78
2023-05-10T05:33:48.737Z,100492.50
2023-05-10T05:36:15.262Z,100489.72
2023-05-10T05:38:41.824Z,100469.97
2023-05-10T05:41:08.270Z,100489.34
2023-05-10T05:43:37.451Z,100500.28
2023-05-10T05:46:04.939Z,100481.56
2023-05-10T05:48:31.923Z,100500.38
2023-05-10T05:50:58.803Z,100491.09
2023-05-10T05:53:25.317Z,100493.09
2023-05-10T05:55:56.252Z,100496.53
2023-05-10T05:58:23.495Z,100504.91
2023-05-10T06:00:53.602Z,100469.59
2023-05-10T06:03:20.411Z,100496.41
2023-05-10T06:05:47.422Z,100506.09
2023-05-10T06:08:14.329Z,100503.03
2023-05-10T06:10:40.723Z,100483.84
2023-05-10T06:13:07.202Z,100497.44
2023-05-10T06:15:33.703Z,100491.19
2023-05-10T06:18:00.342Z,100504.22
2023-05-10T06:20:26.959Z,100509.03
2023-05-10T06:22:53.586Z,100499.72
2023-05-10T06:25:20.054Z,100494.13
2023-05-10T06:27:53.451Z,100461.22
2023-05-10T06:30:21.146Z,100516.34
2023-05-10T06:32:47.714Z,100478.31
2023-05-10T06:35:14.696Z,100516.91
2023-05-10T06:37:41.165Z,100516.75
2023-05-10T06:40:08.487Z,100521.59
2023-05-10T06:42:35.093Z,100525.00
2023-05-10T06:45:01.635Z,100529.19
2023-05-10T06:47:28.124Z,100490.47
2023-05-10T06:49:54.668Z,100508.41
2023-05-10T06:52:21.079Z,100523.47
2023-05-10T06:54:47.568Z,100527.91
2023-05-10T06:57:27.638Z,100520.41
2023-05-10T06:59:57.612Z,100527.97
2023-05-10T07:02:24.430Z,100517.34
2023-05-10T07:04:52.720Z,100524.25
2023-05-10T07:07:19.838Z,100512.44
2023-05-10T07:09:46.686Z,100530.75
2023-05-10T07:12:15.430Z,100532.91
2023-05-10T07:14:43.265Z,100531.81
2023-05-10T07:17:10.125Z,100522.66
2023-05-10T07:19:36.914Z,100519.31
2023-05-10T07:22:03.597Z,100528.44
2023-05-10T07:24:30.810Z,100532.41
2023-05-10T07:26:57.323Z,100532.63
2023-05-10T07:29:23.774Z,100540.75
2023-05-10T07:31:50.200Z,100527.19
2023-05-10T07:34:16.853Z,100541.16
2023-05-10T07:36:43.458Z,100538.66
2023-05-10T07:39:09.967Z,100541.78
2023-05-10T07:41:38.495Z,100540.75
2023-05-10T07:44:05.420Z,100549.91
2023-05-10T07:46:32.140Z,100512.41
2023-05-10T07:48:58.572Z,100551.16
2023-05-10T07:51:25.108Z,100549.50
2023-05-10T07:53:51.566Z,100520.09
2023-05-10T07:56:28.099Z,100542.34
2023-05-10T07:58:55.521Z,100534.84
2023-05-10T08:01:22.387Z,100517.75
2023-05-10T08:03:49.797Z,100528.38
2023-05-10T08:06:18.611Z,100549.75
2023-05-10T08:08:50.091Z,100539.78
2023-05-10T08:11:18.460Z,100515.81
2023-05-10T08:13:45.841Z,100568.88
2023-05-10T08:16:12.317Z,100560.31
2023-05-10T08:18:39.539Z,100565.09
2023-05-10T08:21:06.847Z,100537.66
2023-05-10T08:23:33.873Z,100576.72
2023-05-10T08:26:01.122Z,100582.75
2023-05-10T08:28:28.063Z,100582.13
2023-05-10T08:30:54.826Z,100585.69
2023-05-10T08:33:21.400Z,100582.38
2023-05-10T08:35:47.985Z,100569.22
2023-05-10T08:38:16.384Z,100580.47
2023-05-10T08:40:44.283Z,100569.69
2023-05-10T08:43:12.947Z,100581.78
2023-05-10T08:45:46.483Z,100583.41
2023-05-10T08:48:12.933Z,100559.47
2023-05-10T08:50:41.431Z,100560.16
2023-05-10T08:53:12.002Z,100576.97
2023-05-10T08:55:39.872Z,100567.47
2023-05-10T08:58:07.427Z,100574.97
2023-05-10T09:00:34.914Z,100552.09
2023-05-10T09:03:02.579Z,100607.31
2023-05-10T09:05:29.236Z,100592.75
2023-05-10T09:07:55.788Z,100612.78
2023-05-10T09:10:23.697Z,100578.84
2023-05-10T09:12:51.691Z,100614.03
2023-05-10T09:15:20.301Z,100619.25
2023-05-10T09:17:47.210Z,100614.66
2023-05-10T09:20:13.810Z,100622.13
2023-05-10T09:22:41.065Z,100614.03
2023-05-10T09:25:13.387Z,100618.63
2023-05-10T09:27:40.972Z,100622.59
2023-05-10T09:30:08.713Z,100632.59
2023-05-10T09:32:39.325Z,100632.59
2023-05-10T09:35:17.042Z,100640.94
2023-05-10T09:37:46.904Z,100633.88
2023-05-10T09:40:21.127Z,100627.88
2023-05-10T09:43:03.791Z,100659.31
2023-05-10T09:45:31.892Z,100664.09
2023-05-10T09:48:00.006Z,100678.72
2023-05-10T09:50:27.553Z,100659.53
2023-05-10T09:52:58.743Z,100658.47
2023-05-10T09:55:27.880Z,100669.28
2023-05-10T09:58:02.229Z,100667.28
2023-05-10T10:00:35.097Z,100677.63
2023-05-10T10:03:02.995Z,100655.69
2023-05-10T10:05:34.076Z,100642.81
2023-05-10T10:08:02.265Z,100663.47
2023-05-10T10:10:29.274Z,100685.47
2023-05-10T10:12:56.577Z,100697.78
2023-05-10T10:15:26.979Z,100673.97
2023-05-10T10:17:54.367Z,100697.22
2023-05-10T10:20:23.120Z,100697.75
2023-05-10T10:22:49.800Z,100703.19
2023-05-10T10:25:18.708Z,100708.16
2023-05-10T10:27:54.690Z,100708.63
2023-05-10T10:30:44.774Z,100699.25
2023-05-10T10:33:30.791Z,100712.47
2023-05-10T10:36:00.939Z,100711.06
2023-05-10T10:38:37.898Z,100707.63
2023-05-10T10:41:11.833Z,100682.31
2023-05-10T10:43:38.396Z,100710.09
2023-05-10T10:46:18.459Z,100706.41
2023-05-10T10:48:50.707Z,100711.81
2023-05-10T10:51:17.556Z,100720.03
2023-05-10T10:53:44.414Z,100675.97
2023-05-10T10:56:16.064Z,100719.50
2023-05-10T10:58:49.728Z,100650.03
2023-05-10T11:01:18.216Z,100700.03
2023-05-10T11:04:04.966Z,100726.00
2023-05-10T11:06:33.357Z,100713.50
2023-05-10T11:09:00.669Z,100723.75
2023-05-10T11:11:27.231Z,100691.00
2023-05-10T11:13:53.736Z,100728.00
2023-05-10T11:16:21.568Z,100713.78
2023-05-10T11:19:14.889Z,100739.06
2023-05-10T11:21:47.523Z,100732.66
2023-05-10T11:24:28.193Z,100741.75
2023-05-10T11:26:54.882Z,100746.66
2023-05-10T11:29:21.467Z,100746.13
2023-05-10T11:31:49.382Z,100750.69
2023-05-10T11:34:34.306Z,100756.72
2023-05-10T11:37:03.879Z,100749.38
2023-05-10T11:39:32.509Z,100754.56
2023-05-10T11:41:59.252Z,100757.75
2023-05-10T11:44:31.949Z,100727.72
2023-05-10T11:47:02.551Z,100760.56
2023-05-10T11:49:29.217Z,100766.78
2023-05-10T11:52:08.179Z,100768.28
2023-05-10T11:54:36.072Z,100770.50
2023-05-10T11:57:02.855Z,100767.63
2023-05-10T11:59:29.357Z,100746.19
2023-05-10T12:01:56.200Z,100734.31
2023-05-10T12:04:22.957Z,100771.34
2023-05-10T12:06:49.571Z,100778.69
2023-05-10T12:09:17.632Z,100770.25
2023-05-10T12:11:45.858Z,100774.22
2023-05-10T12:14:12.484Z,100728.34
2023-05-10T12:16:39.399Z,100771.53
2023-05-10T12:19:09.144Z,100776.22
2023-05-10T12:21:35.706Z,100768.66
2023-05-10T12:24:06.134Z,100792.56
2023-05-10T12:26:33.016Z,100762.38
2023-05-10T12:29:20.988Z,100792.03
2023-05-10T12:32:01.248Z,100749.91
2023-05-10T12:34:39.813Z,100803.84
2023-05-10T12:37:06.416Z,100768.91
2023-05-10T12:39:45.836Z,100795.28
2023-05-10T12:42:12.688Z,100751.31
2023-05-10T12:44:39.982Z,100797.41
2023-05-10T12:47:06.863Z,100791.28
2023-05-10T12:49:33.380Z,100794.72
2023-05-10T12:51:59.859Z,100789.63
2023-05-10T12:54:26.723Z,100799.53
2023-05-10T12:56:53.230Z,100803.59
2023-05-10T12:59:19.636Z,100777.16
2023-05-10T13:01:46.205Z,100798.88
2023-05-10T13:04:12.744Z,100753.66
2023-05-10T13:06:39.215Z,100793.34
2023-05-10T13:09:05.681Z,100807.50
2023-05-10T13:11:32.182Z,100794.47
2023-05-10T13:13:58.923Z,100803.19
2023-05-10T13:16:25.583Z,100792.81
2023-05-10T13:18:55.455Z,100764.94
2023-05-10T13:21:21.994Z,100745.56
2023-05-10T13:23:48.483Z,100800.97
2023-05-10T13:26:15.056Z,100803.31
2023-05-10T13:28:41.585Z,100807.75
2023-05-10T13:31:08.609Z,100803.59
2023-05-10T13:33:35.038Z,100823.84
2023-05-10T13:36:01.452Z,100808.63
2023-05-10T13:38:27.844Z,100777.56
2023-05-10T13:40:54.374Z,100810.53
2023-05-10T13:43:20.864Z,100791.16
2023-05-10T13:45:47.385Z,100774.47
2023-05-10T13:48:13.795Z,100800.75
2023-05-10T13:50:40.231Z,100808.25
2023-05-10T13:53:06.657Z,100815.34
2023-05-10T13:55:33.320Z,100801.38
2023-05-10T13:57:59.840Z,100812.25
2023-05-10T14:00:26.209Z,100808.28
2023-05-10T14:02:52.660Z,100814.78
2023-05-10T14:05:22.310Z,100757.03
2023-05-10T14:07:52.270Z,100791.28
2023-05-10T14:10:18.786Z,100795.06
2023-05-10T14:12:45.246Z,100808.00
2023-05-10T14:15:12.553Z,100809.63
2023-05-10T14:17:39.090Z,100801.94
2023-05-10T14:20:08.610Z,100773.56
2023-05-10T14:22:35.409Z,100820.94
2023-05-10T14:25:02.038Z,100811.31
2023-05-10T14:27:28.530Z,100816.13
2023-05-10T14:29:55.031Z,100808.22
2023-05-10T14:32:21.534Z,100800.91
2023-05-10T14:34:48.106Z,100815.50
2023-05-10T14:37:14.919Z,100821.97
2023-05-10T14:39:47.997Z,100821.53
2023-05-10T14:42:14.365Z,100821.97
2023-05-10T14:44:40.732Z,100776.06
2023-05-10T14:47:07.779Z,100813.59
2023-05-10T14:49:34.482Z,100817.59
2023-05-10T14:52:01.219Z,100809.47
2023-05-10T14:54:28.320Z,100776.69
2023-05-10T14:56:54.801Z,100795.44
2023-05-10T14:59:21.590Z,100809.84
2023-05-10T15:01:48.548Z,100819.41
2023-05-10T15:04:17.324Z,100815.00
2023-05-10T15:06:44.243Z,100819.78
2023-05-10T15:09:10.653Z,100819.75
2023-05-10T15:11:37.235Z,100826.03
2023-05-10T15:14:03.852Z,100777.00
2023-05-10T15:16:30.781Z,100791.44
2023-05-10T15:18:58.841Z,100833.13
2023-05-10T15:21:25.351Z,100831.69
2023-05-10T15:23:51.811Z,100833.34
2023-05-10T15:26:18.271Z,100838.41
2023-05-10T15:28:44.875Z,100805.88
2023-05-10T15:31:11.946Z,100835.91
2023-05-10T15:33:39.043Z,100825.50
2023-05-10T15:36:05.765Z,100808.16
2023-05-10T15:38:32.437Z,100824.88
2023-05-10T15:40:59.250Z,100850.13
2023-05-10T15:43:25.678Z,100837.59
2023-05-10T15:45:52.211Z,100845.13
2023-05-10T15:48:18.683Z,100828.22
2023-05-10T15:50:45.209Z,100814.47
2023-05-10T15:53:12.116Z,100852.03
2023-05-10T15:55:38.649Z,100830.94
2023-05-10T15:58:05.038Z,100797.72
2023-05-10T16:00:31.415Z,100868.66
2023-05-10T16:02:58.182Z,100867.28
2023-05-10T16:05:24.728Z,100863.22
2023-05-10T16:07:51.222Z,100872.75
2023-05-10T16:10:17.655Z,100856.88
2023-05-10T16:12:44.070Z,100864.19
2023-05-10T16:15:10.809Z,100841.56
2023-05-10T16:17:37.438Z,100886.09
2023-05-10T16:20:05.220Z,100849.34
2023-05-10T16:22:31.714Z,100885.81
2023-05-10T16:24:58.876Z,100887.59
2023-05-10T16:27:28.559Z,100898.34
2023-05-10T16:29:54.948Z,100861.97
2023-05-10T16:32:21.483Z,100900.28
2023-05-10T16:34:47.936Z,100899.41
2023-05-10T16:37:14.433Z,100906.66
2023-05-10T16:39:40.927Z,100904.31
2023-05-10T16:42:07.634Z,100895.31
2023-05-10T16:44:34.211Z,100904.69
2023-05-10T16:47:00.862Z,100910.47
2023-05-10T16:49:27.337Z,100915.84
2023-05-10T16:51:53.770Z,100908.81
2023-05-10T16:54:21.797Z,100906.38
2023-05-10T16:56:48.249Z,100911.03
2023-05-10T16:59:14.711Z,100917.09
2023-05-10T17:01:41.465Z,100906.00
2023-05-10T17:04:08.104Z,100923.34
2023-05-10T17:06:36.640Z,100860.13
2023-05-10T17:09:03.930Z,100920.41
2023-05-10T17:11:30.299Z,100925.63
2023-05-10T17:13:57.342Z,100922.09
2023-05-10T17:16:23.777Z,100924.34
2023-05-10T17:18:50.332Z,100905.28
2023-05-10T17:21:17.144Z,100919.22
2023-05-10T17:23:43.773Z,100898.53
2023-05-10T17:26:10.486Z,100897.06
2023-05-10T17:28:36.903Z,100939.56
2023-05-10T17:31:03.345Z,100934.16
2023-05-10T17:33:29.787Z,100974.75
2023-05-10T17:35:56.682Z,100943.97
2023-05-10T17:38:23.067Z,100969.81
2023-05-10T17:40:49.581Z,100973.97
2023-05-10T17:43:16.139Z,100983.19
2023-05-10T17:45:44.011Z,100980.63
2023-05-10T17:48:11.297Z,100964.94
2023-05-10T17:50:37.969Z,100984.13
2023-05-10T17:53:04.347Z,101000.94
2023-05-10T17:55:31.160Z,100997.44
2023-05-10T17:58:02.321Z,101005.22
2023-05-10T18:00:28.749Z,100993.13
2023-05-10T18:02:55.278Z,101009.28
2023-05-10T18:05:22.119Z,101007.97
2023-05-10T18:07:48.948Z,100997.56
2023-05-10T18:10:15.464Z,100977.13
2023-05-10T18:12:41.943Z,100995.25
2023-05-10T18:15:08.861Z,101022.81
2023-05-10T18:17:35.379Z,101021.50
2023-05-10T18:20:02.223Z,101024.19
2023-05-10T18:22:28.692Z,101016.66
2023-05-10T18:24:55.542Z,101023.53
2023-05-10T18:27:22.328Z,101016.69
2023-05-10T18:29:48.693Z,101026.91
2023-05-10T18:32:15.425Z,101018.53
2023-05-10T18:34:41.830Z,101044.72
2023-05-10T18:37:09.538Z,101037.66
2023-05-10T18:39:39.149Z,101046.75
2023-05-10T18:42:06.061Z,101048.78
2023-05-10T18:44:32.624Z,101055.53
2023-05-10T18:46:59.331Z,101054.69
2023-05-10T18:49:26.687Z,101033.97
2023-05-10T18:51:53.448Z,101028.59
2023-05-10T18:54:20.548Z,101069.47
2023-05-10T18:56:47.262Z,101056.34
2023-05-10T18:59:13.906Z,101066.78
2023-05-10T19:01:41.534Z,101061.25
2023-05-10T19:04:08.885Z,101070.81
2023-05-10T19:06:36.119Z,101037.00
2023-05-10T19:09:03.191Z,101075.50
2023-05-10T19:11:32.138Z,101080.34
2023-05-10T19:13:59.033Z,101048.25
2023-05-10T19:16:28.663Z,101082.22
2023-05-10T19:18:56.580Z,101083.72
2023-05-10T19:21:23.086Z,101082.72
2023-05-10T19:23:49.603Z,101069.41
2023-05-10T19:26:16.083Z,101076.63
2023-05-10T19:28:42.471Z,101096.13
2023-05-10T19:31:08.948Z,101094.44
2023-05-10T19:33:42.119Z,101106.19
2023-05-10T19:36:09.238Z,101099.44
2023-05-10T19:38:38.063Z,101041.50
2023-05-10T19:41:04.696Z,101101.44
2023-05-10T19:43:34.584Z,101106.47
2023-05-10T19:46:02.053Z,101122.25
2023-05-10T19:48:28.800Z,101126.28
2023-05-10T19:51:01.474Z,101117.53
2023-05-10T19:53:28.149Z,101123.88
2023-05-10T19:55:54.948Z,101123.56
2023-05-10T19:58:21.503Z,101124.56
2023-05-10T20:00:48.028Z,101127.41
2023-05-10T20:03:14.535Z,101123.19
2023-05-10T20:05:41.067Z,101108.06
2023-05-10T20:08:08.394Z,101110.75
2023-05-10T20:10:34.820Z,101104.69
2023-05-10T20:13:01.216Z,101120.16
2023-05-10T20:15:29.384Z,101126.34
2023-05-10T20:17:55.853Z,101112.75
2023-05-10T20:20:22.679Z,101122.81
2023-05-10T20:22:49.782Z,101141.28
2023-05-10T20:25:17.959Z,101136.94
2023-05-10T20:27:44.517Z,101126.97
2023-05-10T20:30:11.404Z,101128.03
2023-05-10T20:32:38.242Z,101092.28
2023-05-10T20:35:05.854Z,101139.94
2023-05-10T20:37:32.303Z,101131.19
2023-05-10T20:39:58.797Z,101137.56
2023-05-10T20:42:25.944Z,101144.22
2023-05-10T20:44:52.696Z,101140.84
2023-05-10T20:47:19.989Z,101145.59
2023-05-10T20:49:46.607Z,101146.59
2023-05-10T20:52:16.242Z,101144.22
2023-05-10T20:54:43.047Z,101146.34
2023-05-10T20:57:12.598Z,101139.78
2023-05-10T20:59:39.630Z,101141.75
2023-05-10T21:02:06.842Z,101144.06
2023-05-10T21:04:33.673Z,101139.84
2023-05-10T21:07:03.498Z,101135.28
2023-05-10T21:09:30.147Z,101141.34
2023-05-10T21:11:58.166Z,101109.66
2023-05-10T21:14:25.095Z,101133.38
2023-05-10T21:16:52.038Z,101138.59
2023-05-10T21:19:19.206Z,101138.13
2023-05-10T21:21:46.497Z,101137.28
2023-05-10T21:24:13.992Z,101109.81
2023-05-10T21:26:40.943Z,101124.19
2023-05-10T21:29:07.846Z,101140.16
2023-05-10T21:31:34.820Z,101113.06
2023-05-10T21:34:01.631Z,101128.25
2023-05-10T21:36:28.466Z,101128.09
2023-05-10T21:38:55.044Z,101133.13
2023-05-10T21:41:22.048Z,101161.50
2023-05-10T21:43:48.939Z,101146.38
2023-05-10T21:46:17.959Z,101148.22
2023-05-10T21:48:45.195Z,101144.69
2023-05-10T21:51:12.284Z,101148.03
2023-05-10T21:53:39.223Z,101140.50
2023-05-10T21:56:07.292Z,101151.25
2023-05-10T21:58:34.130Z,101093.28
2023-05-10T22:01:04.276Z,101119.84
2023-05-10T22:03:31.725Z,101151.25
2023-05-10T22:05:58.639Z,101095.81
2023-05-10T22:08:25.741Z,101153.09
2023-05-10T22:10:52.899Z,101152.41
2023-05-10T22:13:19.548Z,101155.44
2023-05-10T22:15:46.375Z,101143.13
2023-05-10T22:18:13.323Z,101165.16
2023-05-10T22:20:43.546Z,101157.97
2023-05-10T22:23:10.549Z,101158.38
2023-05-10T22:25:37.299Z,101163.88
2023-05-10T22:28:04.765Z,101171.06
2023-05-10T22:30:33.073Z,101123.59
2023-05-10T22:33:00.827Z,101165.84
2023-05-10T22:35:28.166Z,101156.81
2023-05-10T22:37:54.574Z,101157.47
2023-05-10T22:40:21.507Z,101160.81
2023-05-10T22:42:47.971Z,101165.31
2023-05-10T22:45:14.407Z,101163.28
2023-05-10T22:47:41.081Z,101158.91
2023-05-10T22:50:08.709Z,101175.56
2023-05-10T22:52:35.356Z,101166.28
2023-05-10T22:55:01.931Z,101168.91
2023-05-10T22:57:28.465Z,101159.63
2023-05-10T22:59:54.896Z,101167.22
2023-05-10T23:02:21.404Z,101189.88
2023-05-10T23:04:48.115Z,101195.09
2023-05-10T23:07:14.584Z,101162.78
2023-05-10T23:09:41.120Z,101186.38
2023-05-10T23:12:07.689Z,101194.56
2023-05-10T23:14:34.171Z,101195.56
2023-05-10T23:17:00.793Z,101134.53
2023-05-10T23:19:27.664Z,101204.63
2023-05-10T23:21:54.111Z,101204.63
2023-05-10T23:24:20.604Z,101188.75
2023-05-10T23:26:47.298Z,101197.75
2023-05-10T23:29:13.904Z,101196.19
2023-05-10T23:31:45.272Z,101182.56
2023-05-10T23:34:12.467Z,101170.91
2023-05-10T23:36:39.305Z,101197.19
2023-05-10T23:39:06.540Z,101200.88
2023-05-10T23:41:33.000Z,101196.50
2023-05-10T23:44:01.396Z,101168.16
2023-05-10T23:46:28.161Z,101196.50
2023-05-10T23:48:54.610Z,101202.72
2023-05-10T23:51:21.138Z,101189.91
2023-05-10T23:53:48.820Z,101199.03
2023-05-10T23:56:15.307Z,101200.88
2023-05-10T23:58:42.594Z,101206.25
